createdAt,value
2018-04-12T00:03:45.143Z,29.03
2018-04-12T00:08:39.726Z,31.87
2018-04-12T00:13:35.100Z,27.20
2018-04-12T00:18:29.716Z,30.80
2018-04-12T00:23:24.492Z,33.10
2018-04-12T00:28:19.407Z,36.27
2018-04-12T00:33:14.558Z,33.10
2018-04-12T00:38:08.931Z,30.33
2018-04-12T00:43:03.515Z,34.13
2018-04-12T00:47:57.896Z,34.40
2018-04-12T00:52:52.314Z,28.57
2018-04-12T00:57:46.710Z,37.70
2018-04-12T01:02:41.087Z,39.27
2018-04-12T01:07:35.485Z,40.27
2018-04-12T01:12:30.000Z,40.43
2018-04-12T01:17:24.389Z,38.27
2018-04-12T01:22:18.806Z,38.27
2018-04-12T01:27:13.222Z,34.67
2018-04-12T01:32:07.413Z,38.90
2018-04-12T01:37:01.951Z,35.90
2018-04-12T01:41:56.330Z,36.13
2018-04-12T01:46:50.723Z,34.80
2018-04-12T01:51:45.119Z,33.37
2018-04-12T01:56:39.786Z,40.40
2018-04-12T02:01:34.947Z,38.10
2018-04-12T02:06:29.402Z,46.37
2018-04-12T02:11:24.522Z,41.27
2018-04-12T02:16:19.674Z,41.67
2018-04-12T02:21:14.334Z,37.47
2018-04-12T02:26:08.729Z,48.27
2018-04-12T02:31:03.177Z,43.27
2018-04-12T02:35:58.328Z,43.50
2018-04-12T02:40:52.704Z,42.37
2018-04-12T02:45:47.094Z,40.83
2018-04-12T02:50:42.287Z,43.17
2018-04-12T02:55:37.574Z,35.20
2018-04-12T03:00:31.777Z,45.83
2018-04-12T03:05:26.283Z,40.13
2018-04-12T03:10:20.658Z,40.27
2018-04-12T03:15:15.062Z,42.57
2018-04-12T03:20:09.427Z,43.27
2018-04-12T03:25:03.871Z,43.80
2018-04-12T03:29:58.220Z,47.53
2018-04-12T03:34:52.813Z,40.67
2018-04-12T03:39:47.173Z,40.97
2018-04-12T03:44:42.331Z,38.90
2018-04-12T03:49:37.304Z,44.20
2018-04-12T03:54:31.860Z,48.13
2018-04-12T03:59:26.252Z,47.67
2018-04-12T04:04:20.616Z,45.43
2018-04-12T04:09:15.754Z,52.57
2018-04-12T04:14:27.120Z,49.47
2018-04-12T04:35:25.961Z,52.50
2018-04-12T04:40:21.120Z,50.83
2018-04-12T04:45:15.283Z,60.87
2018-04-12T04:50:10.383Z,51.97
2018-04-12T04:55:04.538Z,55.90
2018-04-12T04:59:58.960Z,52.00
2018-04-12T05:04:53.465Z,48.83
2018-04-12T05:09:48.872Z,48.83
2018-04-12T05:14:43.937Z,46.03
2018-04-12T05:19:38.314Z,56.10
2018-04-12T05:24:32.802Z,65.23
2018-04-12T05:29:27.224Z,62.83
2018-04-12T05:34:21.365Z,69.87
2018-04-12T05:39:16.476Z,84.20
2018-04-12T05:44:11.618Z,84.43
2018-04-12T05:49:05.982Z,76.17
2018-04-12T05:54:00.362Z,70.60
2018-04-12T05:58:54.587Z,73.07
2018-04-12T06:03:49.093Z,76.37
2018-04-12T06:08:44.250Z,72.10
2018-04-12T06:13:38.686Z,77.30
2018-04-12T06:18:33.069Z,75.27
2018-04-12T06:23:27.381Z,72.43
2018-04-12T06:28:21.743Z,71.53
2018-04-12T06:33:17.021Z,67.17
2018-04-12T06:38:11.447Z,57.77
2018-04-12T06:43:06.318Z,63.03
2018-04-12T06:48:00.835Z,60.33
2018-04-12T06:52:55.435Z,60.60
2018-04-12T06:57:49.878Z,63.37
2018-04-12T07:02:44.263Z,62.73
2018-04-12T07:07:38.746Z,61.37
2018-04-12T07:12:33.159Z,61.07
2018-04-12T07:17:27.759Z,67.93
2018-04-12T07:22:22.157Z,67.70
2018-04-12T07:27:16.363Z,74.87
2018-04-12T07:32:10.778Z,78.33
2018-04-12T07:37:05.154Z,73.73
2018-04-12T07:41:59.533Z,73.13
2018-04-12T07:46:54.678Z,74.70
2018-04-12T07:51:49.066Z,72.17
2018-04-12T07:56:43.462Z,71.67
2018-04-12T08:01:37.750Z,73.67
2018-04-12T08:06:32.899Z,69.73
2018-04-12T08:11:27.250Z,62.40
2018-04-12T08:16:21.377Z,61.87
2018-04-12T08:21:16.497Z,56.37
2018-04-12T08:26:11.623Z,54.13
2018-04-12T08:31:06.742Z,54.00
2018-04-12T08:36:01.112Z,48.27
2018-04-12T08:40:55.459Z,49.07
2018-04-12T08:45:50.014Z,47.37
2018-04-12T08:50:44.405Z,47.33
2018-04-12T08:55:38.764Z,44.67
2018-04-12T09:00:33.138Z,40.97
2018-04-12T09:05:27.508Z,39.30
2018-04-12T09:10:21.859Z,37.17
2018-04-12T09:15:16.971Z,37.30
2018-04-12T09:20:12.134Z,39.13
2018-04-12T09:25:07.428Z,38.87
2018-04-12T09:30:02.635Z,40.03
2018-04-12T09:34:57.751Z,36.40
2018-04-12T09:39:53.733Z,37.60
2018-04-12T09:44:48.093Z,38.67
2018-04-12T09:49:43.455Z,35.13
2018-04-12T09:54:37.824Z,35.47
2018-04-12T09:59:32.691Z,35.33
2018-04-12T10:04:27.728Z,38.50
2018-04-12T10:09:21.852Z,34.83
2018-04-12T10:14:16.516Z,36.00
2018-04-12T10:19:10.886Z,40.07
2018-04-12T10:24:05.313Z,36.13
2018-04-12T10:28:59.951Z,33.97
2018-04-12T10:33:54.476Z,34.10
2018-04-12T10:38:48.883Z,36.47
2018-04-12T10:43:43.240Z,36.30
2018-04-12T10:48:37.613Z,34.70
2018-04-12T10:53:31.744Z,35.07
2018-04-12T10:58:26.086Z,35.10
2018-04-12T11:03:20.517Z,38.50
2018-04-12T11:08:14.769Z,37.97
2018-04-12T11:13:09.500Z,34.13
2018-04-12T11:18:03.986Z,37.33
2018-04-12T11:22:59.359Z,37.73
2018-04-12T11:27:53.715Z,35.37
2018-04-12T11:32:48.063Z,37.40
2018-04-12T11:37:42.439Z,35.27
2018-04-12T11:42:37.055Z,37.67
2018-04-12T11:47:32.193Z,39.00
2018-04-12T11:52:26.553Z,35.37
2018-04-12T11:57:20.929Z,35.73
2018-04-12T12:02:15.399Z,34.80
2018-04-12T12:07:10.631Z,31.97
2018-04-12T12:12:05.056Z,35.33
2018-04-12T12:16:59.567Z,33.53
2018-04-12T12:21:54.069Z,33.87
2018-04-12T12:26:48.516Z,31.47
2018-04-12T12:31:42.881Z,31.23
2018-04-12T12:36:37.215Z,36.87
2018-04-12T12:41:31.661Z,30.37
2018-04-12T12:46:26.040Z,28.37
2018-04-12T12:51:21.181Z,28.40
2018-04-12T12:56:15.453Z,31.47
2018-04-12T13:01:09.839Z,30.93
2018-04-12T13:06:03.964Z,28.93
2018-04-12T13:10:59.092Z,30.93
2018-04-12T13:15:54.203Z,29.20
2018-04-12T13:20:49.326Z,29.53
2018-04-12T13:25:44.497Z,23.57
2018-04-12T13:30:39.072Z,26.20
2018-04-12T13:35:33.705Z,23.93
2018-04-12T13:40:28.249Z,25.27
2018-04-12T13:45:22.617Z,23.80
2018-04-12T13:50:16.987Z,26.47
2018-04-12T13:55:12.151Z,27.33
2018-04-12T14:00:07.431Z,24.77
2018-04-12T14:05:01.817Z,26.30
2018-04-12T14:09:57.124Z,25.17
2018-04-12T14:14:51.503Z,25.90
2018-04-12T14:19:45.945Z,21.33
2018-04-12T14:24:41.183Z,23.23
2018-04-12T14:29:36.302Z,20.43
2018-04-12T14:34:31.410Z,21.23
2018-04-12T14:39:26.546Z,19.87
2018-04-12T14:44:21.102Z,18.23
2018-04-12T14:49:15.465Z,18.30
2018-04-12T14:54:09.824Z,16.17
2018-04-12T14:59:04.188Z,16.33
2018-04-12T15:03:58.563Z,16.20
2018-04-12T15:08:52.966Z,16.67
2018-04-12T15:13:47.402Z,16.10
2018-04-12T15:18:42.756Z,14.30
2018-04-12T15:23:37.264Z,18.10
2018-04-12T15:28:31.564Z,11.60
2018-04-12T15:33:26.222Z,13.33
2018-04-12T15:38:20.583Z,14.77
2018-04-12T15:43:15.765Z,12.67
2018-04-12T15:48:10.120Z,15.20
2018-04-12T15:53:05.265Z,12.07
2018-04-12T15:57:59.633Z,13.63
2018-04-12T16:02:54.880Z,15.67
2018-04-12T16:07:50.036Z,14.30
2018-04-12T16:12:44.567Z,13.57
2018-04-12T16:17:38.939Z,17.63
2018-04-12T16:22:33.749Z,12.47
2018-04-12T16:27:29.282Z,16.63
2018-04-12T16:32:23.653Z,11.23
2018-04-12T16:37:18.779Z,15.20
2018-04-12T16:42:13.964Z,13.83
2018-04-12T16:47:09.864Z,10.43
2018-04-12T16:52:04.849Z,15.90
2018-04-12T16:57:00.167Z,14.07
2018-04-12T17:01:54.542Z,14.63
2018-04-12T17:06:48.902Z,13.23
2018-04-12T17:11:43.828Z,16.13
2018-04-12T17:16:38.202Z,15.47
2018-04-12T17:21:33.333Z,15.80
2018-04-12T17:26:27.961Z,16.97
2018-04-12T17:31:22.343Z,16.40
2018-04-12T17:36:16.725Z,15.27
2018-04-12T17:41:11.959Z,13.27
2018-04-12T17:46:07.424Z,14.37
2018-04-12T17:51:02.055Z,15.33
2018-04-12T17:55:56.539Z,14.23
2018-04-12T18:00:51.793Z,18.47
2018-04-12T18:05:46.709Z,13.63
2018-04-12T18:10:41.089Z,13.60
2018-04-12T18:15:35.825Z,12.40
2018-04-12T18:20:30.188Z,15.23
2018-04-12T18:25:24.558Z,12.40
2018-04-12T18:30:19.670Z,11.13
2018-04-12T18:35:14.801Z,13.87
2018-04-12T18:40:09.548Z,8.30
2018-04-12T18:45:04.361Z,10.70
2018-04-12T18:49:58.799Z,9.57
2018-04-12T18:54:53.206Z,10.07
2018-04-12T18:59:47.811Z,10.20
2018-04-12T19:04:42.409Z,9.50
2018-04-12T19:09:37.587Z,11.03
2018-04-12T19:14:31.950Z,10.10
2018-04-12T19:19:26.351Z,9.80
2018-04-12T19:24:20.905Z,12.37
2018-04-12T19:29:15.293Z,12.57
2018-04-12T19:34:09.989Z,13.57
2018-04-12T19:39:04.118Z,14.47
2018-04-12T19:43:58.495Z,11.40
2018-04-12T19:48:52.643Z,12.23
2018-04-12T19:53:47.124Z,11.90
2018-04-12T19:58:42.730Z,13.03
2018-04-12T20:03:37.297Z,16.23
2018-04-12T20:08:31.825Z,14.30
2018-04-12T20:13:26.978Z,14.53
2018-04-12T20:18:21.322Z,13.03
2018-04-12T20:23:16.146Z,17.83
2018-04-12T20:28:12.323Z,13.83
2018-04-12T20:33:06.782Z,17.23
2018-04-12T20:38:01.140Z,17.20
2018-04-12T20:42:55.961Z,18.50
2018-04-12T20:47:50.334Z,15.07
2018-04-12T20:52:45.467Z,17.03
2018-04-12T20:57:39.881Z,16.87
2018-04-12T21:02:34.259Z,17.67
2018-04-12T21:07:29.385Z,18.33
2018-04-12T21:12:24.503Z,19.67
2018-04-12T21:17:19.633Z,17.37
2018-04-12T21:22:13.997Z,21.43
2018-04-12T21:27:08.356Z,20.53
2018-04-12T21:32:02.949Z,21.07
2018-04-12T21:36:59.079Z,19.67
2018-04-12T21:41:54.418Z,22.47
2018-04-12T21:46:48.792Z,21.10
2018-04-12T21:51:43.265Z,21.07
2018-04-12T21:56:37.760Z,22.20
2018-04-12T22:01:32.364Z,22.27
2018-04-12T22:06:26.737Z,21.57
2018-04-12T22:11:21.849Z,24.10
2018-04-12T22:16:17.621Z,22.70
2018-04-12T22:21:11.970Z,24.80
2018-04-12T22:26:06.797Z,27.87
2018-04-12T22:31:01.940Z,24.13
2018-04-12T22:35:56.602Z,28.53
2018-04-12T22:40:51.376Z,28.80
2018-04-12T22:45:46.087Z,24.67
2018-04-12T22:50:40.489Z,23.03
2018-04-12T22:55:34.898Z,23.33
2018-04-12T23:00:29.401Z,26.40
2018-04-12T23:05:23.763Z,24.63
2018-04-12T23:10:18.884Z,26.17
2018-04-12T23:15:14.016Z,25.43
2018-04-12T23:20:09.148Z,29.37
2018-04-12T23:25:03.561Z,30.33
2018-04-12T23:29:57.989Z,31.40
2018-04-12T23:34:52.372Z,29.17
2018-04-12T23:39:46.719Z,27.33
2018-04-12T23:44:41.086Z,32.23
2018-04-12T23:49:35.581Z,31.23
2018-04-12T23:54:29.720Z,30.60
2018-04-12T23:59:24.092Z,31.70
